PWSweather.com
Personal Weather Stations
Station Observations
KILMORRI1
Goose Lake, Morris, IL 60450

Goose LakeMorris, IL 60450

Lat: 41.34, Lon: -88.3

Elevation: 523

Station Type:

Latest ConditionsUpdated 6:40:04 PM CDT Monday, Jul 16, 2018
Currently Today's Max Today's Min Today's Average
Temperature 85.8°F29.9°C 89.3°F31.8°C 72.2°F22.3°C 80.8°F27.1°C
Dew Point 72.2°F22.3°C 76.6°F24.8°C 70.4°F21.3°C 73.7°F23.2°C
Winds 5.8 mph NW9.3 kmh NW 8.1 mph -13.0 kmh - - 2.5 mph 4.0 kmh
Wind Gusts 8.1 mph13.0 kmh 11.5 mph18.5 kmh - -
Humidity 64% 95% 59% 80%
Pressure 29.85 in1010.8 mb 29.90 in1012.5 mb 29.84 in1010.5 mb -
Precipitation - 0.01 in0.3 mm - -
Hour Temp Dew Point Humidity Winds Wind Gusts Pressure Precip Precip Rate Daily Precip Total
06:40 PM 85.8°F29.9°C 72.2°F22.3°C 64% 5.8 mph NW9.3 kmh NW 8.1 mph13.0 kmh 29.85 in1010.8 mb - 0.00 in0.0 mm 0.01 in0.3 mm
06:30 PM 86.3°F30.2°C 73.6°F23.1°C 66% 4.6 mph NW7.4 kmh NW 10.4 mph16.7 kmh 29.85 in1010.8 mb - 0.00 in0.0 mm 0.01 in0.3 mm
06:20 PM 86.7°F30.4°C 74.0°F23.3°C 66% 5.8 mph NW9.3 kmh NW 8.1 mph13.0 kmh 29.85 in1010.8 mb - 0.00 in0.0 mm 0.01 in0.3 mm
06:10 PM 86.5°F30.3°C 74.2°F23.4°C 67% 4.6 mph NW7.4 kmh NW 6.9 mph11.1 kmh 29.85 in1010.8 mb - 0.00 in0.0 mm 0.01 in0.3 mm
06:00 PM 87.4°F30.8°C 75.1°F23.9°C 67% 3.5 mph NW5.6 kmh NW 3.5 mph5.6 kmh 29.85 in1010.8 mb - 0.00 in0.0 mm 0.01 in0.3 mm
05:50 PM 87.2°F30.7°C 76.3°F24.6°C 70% 4.6 mph WNW7.4 kmh WNW 5.8 mph9.3 kmh 29.85 in1010.8 mb - 0.00 in0.0 mm 0.01 in0.3 mm
05:40 PM 86.8°F30.4°C 75.9°F24.4°C 70% 4.6 mph NW7.4 kmh NW 8.1 mph13.0 kmh 29.85 in1010.8 mb - 0.00 in0.0 mm 0.01 in0.3 mm
05:30 PM 87.5°F30.8°C 76.1°F24.5°C 69% 5.8 mph NW9.3 kmh NW 10.4 mph16.7 kmh 29.85 in1010.8 mb - 0.00 in0.0 mm 0.01 in0.3 mm
05:20 PM 87.5°F30.8°C 74.7°F23.7°C 66% 5.8 mph NW9.3 kmh NW 9.2 mph14.8 kmh 29.85 in1010.8 mb - 0.00 in0.0 mm 0.01 in0.3 mm
05:10 PM 88.3°F31.3°C 75.5°F24.2°C 66% 3.5 mph NW5.6 kmh NW 8.1 mph13.0 kmh 29.85 in1010.8 mb - 0.00 in0.0 mm 0.01 in0.3 mm
05:00 PM 88.4°F31.3°C 75.6°F24.2°C 66% 4.6 mph NNW7.4 kmh NNW 9.2 mph14.8 kmh 29.85 in1010.8 mb - 0.00 in0.0 mm 0.01 in0.3 mm
04:50 PM 88.3°F31.3°C 75.9°F24.4°C 67% 5.8 mph NW9.3 kmh NW 8.1 mph13.0 kmh 29.85 in1010.8 mb - 0.00 in0.0 mm 0.01 in0.3 mm
04:40 PM 87.4°F30.8°C 76.4°F24.7°C 70% 4.6 mph NW7.4 kmh NW 9.2 mph14.8 kmh 29.85 in1010.8 mb - 0.00 in0.0 mm 0.01 in0.3 mm
04:30 PM 88.7°F31.5°C 75.0°F23.9°C 64% 6.9 mph NW11.1 kmh NW 10.4 mph16.7 kmh 29.84 in1010.5 mb - 0.00 in0.0 mm 0.01 in0.3 mm
04:20 PM 88.4°F31.3°C 74.7°F23.7°C 64% 3.5 mph NW5.6 kmh NW 5.8 mph9.3 kmh 29.85 in1010.8 mb - 0.00 in0.0 mm 0.01 in0.3 mm
04:10 PM 89.1°F31.7°C 72.9°F22.7°C 59% 5.8 mph NW9.3 kmh NW 9.2 mph14.8 kmh 29.85 in1010.8 mb - 0.00 in0.0 mm 0.01 in0.3 mm
04:00 PM 89.0°F31.7°C 73.8°F23.2°C 61% 5.8 mph NW9.3 kmh NW 11.5 mph18.5 kmh 29.84 in1010.5 mb - 0.00 in0.0 mm 0.01 in0.3 mm
03:50 PM 89.3°F31.8°C 75.5°F24.2°C 64% 5.8 mph WNW9.3 kmh WNW 10.4 mph16.7 kmh 29.85 in1010.8 mb - 0.00 in0.0 mm 0.01 in0.3 mm
03:40 PM 88.5°F31.4°C 75.7°F24.3°C 66% 3.5 mph NW5.6 kmh NW 6.9 mph11.1 kmh 29.85 in1010.8 mb - 0.00 in0.0 mm 0.01 in0.3 mm
03:30 PM 88.8°F31.6°C 76.4°F24.7°C 67% 4.6 mph WNW7.4 kmh WNW 6.9 mph11.1 kmh 29.85 in1010.8 mb - 0.00 in0.0 mm 0.01 in0.3 mm
03:20 PM 88.5°F31.4°C 76.6°F24.8°C 68% 4.6 mph NW7.4 kmh NW 6.9 mph11.1 kmh 29.85 in1010.8 mb - 0.00 in0.0 mm 0.01 in0.3 mm
03:10 PM 87.7°F30.9°C 75.4°F24.1°C 67% 4.6 mph WNW7.4 kmh WNW 6.9 mph11.1 kmh 29.85 in1010.8 mb - 0.00 in0.0 mm 0.01 in0.3 mm
03:00 PM 87.5°F30.8°C 75.2°F24.0°C 67% 5.8 mph WNW9.3 kmh WNW 11.5 mph18.5 kmh 29.85 in1010.8 mb - 0.00 in0.0 mm 0.01 in0.3 mm
02:50 PM 88.6°F31.4°C 75.8°F24.3°C 66% 3.5 mph W5.6 kmh W 5.8 mph9.3 kmh 29.85 in1010.8 mb - 0.00 in0.0 mm 0.01 in0.3 mm
02:40 PM 86.7°F30.4°C 74.8°F23.8°C 68% 2.3 mph W3.7 kmh W 5.8 mph9.3 kmh 29.86 in1011.2 mb - 0.00 in0.0 mm 0.01 in0.3 mm
02:30 PM 86.1°F30.1°C 73.9°F23.3°C 67% 2.3 mph WNW3.7 kmh WNW 5.8 mph9.3 kmh 29.86 in1011.2 mb - 0.00 in0.0 mm 0.01 in0.3 mm
02:20 PM 85.8°F29.9°C 72.2°F22.3°C 64% 2.3 mph NW3.7 kmh NW 3.5 mph5.6 kmh 29.86 in1011.2 mb - 0.00 in0.0 mm 0.01 in0.3 mm
02:10 PM 86.8°F30.4°C 72.7°F22.6°C 63% 3.5 mph W5.6 kmh W 3.5 mph5.6 kmh 29.86 in1011.2 mb - 0.00 in0.0 mm 0.01 in0.3 mm
02:00 PM 88.3°F31.3°C 73.6°F23.1°C 62% 3.5 mph WNW5.6 kmh WNW 6.9 mph11.1 kmh 29.87 in1011.5 mb - 0.00 in0.0 mm 0.01 in0.3 mm
01:50 PM 88.5°F31.4°C 75.7°F24.3°C 66% 4.6 mph NNW7.4 kmh NNW 10.4 mph16.7 kmh 29.87 in1011.5 mb - 0.00 in0.0 mm 0.01 in0.3 mm
01:40 PM 87.9°F31.1°C 75.1°F23.9°C 66% 4.6 mph WNW7.4 kmh WNW 9.2 mph14.8 kmh 29.87 in1011.5 mb - 0.00 in0.0 mm 0.01 in0.3 mm
01:30 PM 88.3°F31.3°C 75.9°F24.4°C 67% 4.6 mph WNW7.4 kmh WNW 10.4 mph16.7 kmh 29.87 in1011.5 mb - 0.00 in0.0 mm 0.01 in0.3 mm
01:20 PM 87.7°F30.9°C 74.9°F23.8°C 66% 8.1 mph NW13.0 kmh NW 10.4 mph16.7 kmh 29.87 in1011.5 mb - 0.00 in0.0 mm 0.01 in0.3 mm
01:10 PM 87.5°F30.8°C 73.8°F23.2°C 64% 4.6 mph NW7.4 kmh NW 11.5 mph18.5 kmh 29.87 in1011.5 mb - 0.00 in0.0 mm 0.01 in0.3 mm
01:00 PM 87.9°F31.1°C 73.7°F23.2°C 63% 3.5 mph NW5.6 kmh NW 5.8 mph9.3 kmh 29.88 in1011.9 mb - 0.00 in0.0 mm 0.01 in0.3 mm
12:50 PM 87.3°F30.7°C 74.6°F23.7°C 66% 3.5 mph W5.6 kmh W 5.8 mph9.3 kmh 29.88 in1011.9 mb - 0.00 in0.0 mm 0.01 in0.3 mm
12:40 PM 87.7°F30.9°C 76.2°F24.6°C 69% 2.3 mph NW3.7 kmh NW 4.6 mph7.4 kmh 29.88 in1011.9 mb - 0.00 in0.0 mm 0.01 in0.3 mm
12:30 PM 87.3°F30.7°C 74.1°F23.4°C 65% 2.3 mph NNW3.7 kmh NNW 6.9 mph11.1 kmh 29.88 in1011.9 mb - 0.00 in0.0 mm 0.01 in0.3 mm
12:20 PM 86.8°F30.4°C 75.4°F24.1°C 69% 1.2 mph W1.9 kmh W 4.6 mph7.4 kmh 29.88 in1011.9 mb - 0.00 in0.0 mm 0.01 in0.3 mm
12:10 PM 86.8°F30.4°C 75.0°F23.9°C 68% 4.6 mph NW7.4 kmh NW 6.9 mph11.1 kmh 29.89 in1012.2 mb - 0.00 in0.0 mm 0.01 in0.3 mm
12:00 PM 86.5°F30.3°C 74.2°F23.4°C 67% 4.6 mph W7.4 kmh W 8.1 mph13.0 kmh 29.89 in1012.2 mb - 0.00 in0.0 mm 0.01 in0.3 mm
11:50 AM 87.4°F30.8°C 75.9°F24.4°C 69% 5.8 mph WNW9.3 kmh WNW 8.1 mph13.0 kmh 29.88 in1011.9 mb - 0.00 in0.0 mm 0.01 in0.3 mm
11:40 AM 86.7°F30.4°C 74.0°F23.3°C 66% 4.6 mph WNW7.4 kmh WNW 8.1 mph13.0 kmh 29.89 in1012.2 mb - 0.00 in0.0 mm 0.01 in0.3 mm
11:30 AM 86.5°F30.3°C 74.7°F23.7°C 68% 4.6 mph NW7.4 kmh NW 6.9 mph11.1 kmh 29.89 in1012.2 mb - 0.00 in0.0 mm 0.01 in0.3 mm
11:20 AM 86.1°F30.1°C 75.2°F24.0°C 70% 4.6 mph NW7.4 kmh NW 6.9 mph11.1 kmh 29.89 in1012.2 mb - 0.00 in0.0 mm 0.01 in0.3 mm
11:10 AM 86.1°F30.1°C 74.3°F23.5°C 68% 4.6 mph WNW7.4 kmh WNW 6.9 mph11.1 kmh 29.89 in1012.2 mb - 0.00 in0.0 mm 0.01 in0.3 mm
11:00 AM 85.7°F29.8°C 75.2°F24.0°C 71% 2.3 mph NW3.7 kmh NW 3.5 mph5.6 kmh 29.89 in1012.2 mb - 0.00 in0.0 mm 0.01 in0.3 mm
10:50 AM 84.9°F29.4°C 74.0°F23.3°C 70% 5.8 mph W9.3 kmh W 6.9 mph11.1 kmh 29.90 in1012.5 mb - 0.00 in0.0 mm 0.01 in0.3 mm
10:40 AM 84.5°F29.2°C 75.7°F24.3°C 75% 2.3 mph NW3.7 kmh NW 5.8 mph9.3 kmh 29.90 in1012.5 mb - 0.00 in0.0 mm 0.01 in0.3 mm
10:30 AM 84.2°F29.0°C 74.6°F23.7°C 73% 3.5 mph NW5.6 kmh NW 4.6 mph7.4 kmh 29.90 in1012.5 mb - 0.00 in0.0 mm 0.01 in0.3 mm
10:20 AM 83.7°F28.7°C 74.5°F23.6°C 74% 2.3 mph WNW3.7 kmh WNW 3.5 mph5.6 kmh 29.90 in1012.5 mb - 0.00 in0.0 mm 0.01 in0.3 mm
10:10 AM 83.9°F28.8°C 74.3°F23.5°C 73% 4.6 mph W7.4 kmh W 9.2 mph14.8 kmh 29.90 in1012.5 mb - 0.00 in0.0 mm 0.01 in0.3 mm
10:00 AM 83.9°F28.8°C 75.5°F24.2°C 76% 3.5 mph WNW5.6 kmh WNW 5.8 mph9.3 kmh 29.90 in1012.5 mb - 0.00 in0.0 mm 0.01 in0.3 mm
09:50 AM 83.2°F28.4°C 75.2°F24.0°C 77% 2.3 mph SW3.7 kmh SW 3.5 mph5.6 kmh 29.90 in1012.5 mb - 0.00 in0.0 mm 0.01 in0.3 mm
09:40 AM 82.7°F28.2°C 75.9°F24.4°C 80% 1.2 mph WNW1.9 kmh WNW 2.3 mph3.7 kmh 29.90 in1012.5 mb - 0.00 in0.0 mm 0.01 in0.3 mm
09:30 AM 82.3°F27.9°C 75.5°F24.2°C 80% 2.3 mph WNW3.7 kmh WNW 3.5 mph5.6 kmh 29.90 in1012.5 mb - 0.00 in0.0 mm 0.01 in0.3 mm
09:20 AM 82.0°F27.8°C 76.3°F24.6°C 83% 1.2 mph WNW1.9 kmh WNW 3.5 mph5.6 kmh 29.89 in1012.2 mb - 0.00 in0.0 mm 0.01 in0.3 mm
09:10 AM 82.2°F27.9°C 76.2°F24.6°C 82% 1.2 mph NW1.9 kmh NW 2.3 mph3.7 kmh 29.89 in1012.2 mb - 0.00 in0.0 mm 0.01 in0.3 mm
09:00 AM 81.2°F27.3°C 75.1°F23.9°C 82% 1.2 mph W1.9 kmh W 2.3 mph3.7 kmh 29.89 in1012.2 mb - 0.00 in0.0 mm 0.01 in0.3 mm
08:50 AM 81.1°F27.3°C 75.8°F24.3°C 84% 1.2 mph WNW1.9 kmh WNW 2.3 mph3.7 kmh 29.89 in1012.2 mb - 0.00 in0.0 mm 0.01 in0.3 mm
08:40 AM 80.5°F26.9°C 75.9°F24.4°C 86% 2.3 mph NW3.7 kmh NW 3.5 mph5.6 kmh 29.89 in1012.2 mb - 0.00 in0.0 mm 0.01 in0.3 mm
08:30 AM 80.0°F26.7°C 75.8°F24.3°C 87% 1.2 mph NW1.9 kmh NW 1.2 mph1.9 kmh 29.89 in1012.2 mb - 0.00 in0.0 mm 0.01 in0.3 mm
08:20 AM 78.6°F25.9°C 74.4°F23.6°C 87% 1.2 mph ESE1.9 kmh ESE 2.3 mph3.7 kmh 29.89 in1012.2 mb - 0.00 in0.0 mm 0.01 in0.3 mm
08:10 AM 78.4°F25.8°C 74.2°F23.4°C 87% Calm Calm 1.2 mph1.9 kmh 29.89 in1012.2 mb - 0.00 in0.0 mm 0.01 in0.3 mm
08:00 AM 77.3°F25.2°C 74.1°F23.4°C 90% Calm Calm 1.2 mph1.9 kmh 29.89 in1012.2 mb - 0.00 in0.0 mm 0.01 in0.3 mm
07:50 AM 76.3°F24.6°C 74.1°F23.4°C 93% 1.2 mph WNW1.9 kmh WNW 2.3 mph3.7 kmh 29.89 in1012.2 mb - 0.00 in0.0 mm 0.01 in0.3 mm
07:40 AM 75.0°F23.9°C 73.1°F22.8°C 94% Calm Calm -- 29.89 in1012.2 mb - 0.00 in0.0 mm 0.01 in0.3 mm
07:30 AM 74.8°F23.8°C 72.9°F22.7°C 94% Calm Calm -- 29.89 in1012.2 mb - 0.00 in0.0 mm 0.01 in0.3 mm
07:20 AM 74.5°F23.6°C 72.7°F22.6°C 94% Calm Calm -- 29.89 in1012.2 mb - 0.00 in0.0 mm 0.01 in0.3 mm
07:10 AM 74.4°F23.6°C 72.6°F22.6°C 94% Calm Calm 1.2 mph1.9 kmh 29.89 in1012.2 mb - 0.00 in0.0 mm 0.01 in0.3 mm
07:00 AM 74.5°F23.6°C 72.7°F22.6°C 94% 1.2 mph NW1.9 kmh NW 2.3 mph3.7 kmh 29.89 in1012.2 mb - 0.00 in0.0 mm 0.01 in0.3 mm
06:50 AM 74.9°F23.8°C 73.1°F22.8°C 94% 2.3 mph NW3.7 kmh NW 2.3 mph3.7 kmh 29.89 in1012.2 mb - 0.00 in0.0 mm 0.01 in0.3 mm
06:40 AM 74.7°F23.7°C 73.2°F22.9°C 95% Calm Calm 2.3 mph3.7 kmh 29.89 in1012.2 mb - 0.00 in0.0 mm 0.01 in0.3 mm
06:30 AM 74.3°F23.5°C 72.4°F22.4°C 94% Calm Calm 1.2 mph1.9 kmh 29.89 in1012.2 mb - 0.00 in0.0 mm 0.01 in0.3 mm
06:20 AM 74.0°F23.3°C 72.2°F22.3°C 94% Calm Calm -- 29.89 in1012.2 mb - 0.01 in0.3 mm 0.01 in0.3 mm
06:10 AM 73.6°F23.1°C 71.7°F22.1°C 94% Calm Calm 1.2 mph1.9 kmh 29.89 in1012.2 mb - 0.00 in0.0 mm 0.00 in0.0 mm
06:00 AM 73.2°F22.9°C 71.4°F21.9°C 94% Calm Calm -- 29.89 in1012.2 mb - 0.00 in0.0 mm 0.00 in0.0 mm
05:50 AM 72.6°F22.6°C 70.8°F21.6°C 94% 1.2 mph SW1.9 kmh SW 1.2 mph1.9 kmh 29.89 in1012.2 mb - 0.00 in0.0 mm 0.00 in0.0 mm
05:40 AM 72.2°F22.3°C 70.4°F21.3°C 94% 1.2 mph SW1.9 kmh SW 1.2 mph1.9 kmh 29.89 in1012.2 mb - 0.00 in0.0 mm 0.00 in0.0 mm
05:30 AM 72.6°F22.6°C 70.8°F21.6°C 94% Calm Calm 1.2 mph1.9 kmh 29.89 in1012.2 mb - 0.00 in0.0 mm 0.00 in0.0 mm
05:20 AM 72.3°F22.4°C 70.5°F21.4°C 94% Calm Calm 1.2 mph1.9 kmh 29.88 in1011.9 mb - 0.00 in0.0 mm 0.00 in0.0 mm
05:10 AM 72.5°F22.5°C 70.7°F21.5°C 94% Calm Calm -- 29.89 in1012.2 mb - 0.00 in0.0 mm 0.00 in0.0 mm
05:00 AM 72.9°F22.7°C 71.1°F21.7°C 94% Calm Calm 1.2 mph1.9 kmh 29.88 in1011.9 mb - 0.00 in0.0 mm 0.00 in0.0 mm
04:50 AM 72.9°F22.7°C 71.0°F21.7°C 94% Calm Calm 1.2 mph1.9 kmh 29.88 in1011.9 mb - 0.00 in0.0 mm 0.00 in0.0 mm
04:40 AM 72.9°F22.7°C 71.1°F21.7°C 94% 1.2 mph SW1.9 kmh SW 2.3 mph3.7 kmh 29.88 in1011.9 mb - 0.00 in0.0 mm 0.00 in0.0 mm
04:30 AM 72.9°F22.7°C 71.1°F21.7°C 94% 1.2 mph SW1.9 kmh SW 3.5 mph5.6 kmh 29.88 in1011.9 mb - 0.00 in0.0 mm 0.00 in0.0 mm
04:20 AM 72.6°F22.6°C 70.8°F21.6°C 94% 1.2 mph SSW1.9 kmh SSW 3.5 mph5.6 kmh 29.88 in1011.9 mb - 0.00 in0.0 mm 0.00 in0.0 mm
04:10 AM 72.4°F22.4°C 70.6°F21.4°C 94% 1.2 mph WSW1.9 kmh WSW 2.3 mph3.7 kmh 29.87 in1011.5 mb - 0.00 in0.0 mm 0.00 in0.0 mm
04:00 AM 72.6°F22.6°C 70.8°F21.6°C 94% Calm Calm 1.2 mph1.9 kmh 29.87 in1011.5 mb - 0.00 in0.0 mm 0.00 in0.0 mm
03:50 AM 72.6°F22.6°C 70.8°F21.6°C 94% 1.2 mph SW1.9 kmh SW 2.3 mph3.7 kmh 29.87 in1011.5 mb - 0.00 in0.0 mm 0.00 in0.0 mm
03:40 AM 72.8°F22.7°C 71.0°F21.7°C 94% Calm Calm 1.2 mph1.9 kmh 29.88 in1011.9 mb - 0.00 in0.0 mm 0.00 in0.0 mm
03:30 AM 72.9°F22.7°C 71.1°F21.7°C 94% Calm Calm -- 29.88 in1011.9 mb - 0.00 in0.0 mm 0.00 in0.0 mm
03:20 AM 73.0°F22.8°C 70.9°F21.6°C 93% Calm Calm -- 29.88 in1011.9 mb - 0.00 in0.0 mm 0.00 in0.0 mm
03:10 AM 73.1°F22.8°C 71.0°F21.7°C 93% Calm Calm -- 29.88 in1011.9 mb - 0.00 in0.0 mm 0.00 in0.0 mm
03:00 AM 73.4°F23.0°C 71.3°F21.8°C 93% 1.2 mph SSW1.9 kmh SSW 2.3 mph3.7 kmh 29.88 in1011.9 mb - 0.00 in0.0 mm 0.00 in0.0 mm
02:50 AM 73.6°F23.1°C 71.4°F21.9°C 93% Calm Calm 2.3 mph3.7 kmh 29.88 in1011.9 mb - 0.00 in0.0 mm 0.00 in0.0 mm
02:40 AM 74.0°F23.3°C 71.8°F22.1°C 93% 1.2 mph SSW1.9 kmh SSW 2.3 mph3.7 kmh 29.88 in1011.9 mb - 0.00 in0.0 mm 0.00 in0.0 mm
02:30 AM 74.2°F23.4°C 72.1°F22.3°C 93% 1.2 mph SW1.9 kmh SW 1.2 mph1.9 kmh 29.89 in1012.2 mb - 0.00 in0.0 mm 0.00 in0.0 mm
02:20 AM 74.4°F23.6°C 72.5°F22.5°C 94% 1.2 mph SW1.9 kmh SW 3.5 mph5.6 kmh 29.89 in1012.2 mb - 0.00 in0.0 mm 0.00 in0.0 mm
02:10 AM 74.1°F23.4°C 72.3°F22.4°C 94% 1.2 mph SW1.9 kmh SW 2.3 mph3.7 kmh 29.89 in1012.2 mb - 0.00 in0.0 mm 0.00 in0.0 mm
02:00 AM 74.1°F23.4°C 72.2°F22.3°C 94% 2.3 mph SW3.7 kmh SW 3.5 mph5.6 kmh 29.89 in1012.2 mb - 0.00 in0.0 mm 0.00 in0.0 mm
01:50 AM 74.2°F23.4°C 72.3°F22.4°C 94% 1.2 mph SSW1.9 kmh SSW 2.3 mph3.7 kmh 29.90 in1012.5 mb - 0.00 in0.0 mm 0.00 in0.0 mm
01:40 AM 74.2°F23.4°C 72.3°F22.4°C 94% 1.2 mph SSW1.9 kmh SSW 2.3 mph3.7 kmh 29.90 in1012.5 mb - 0.00 in0.0 mm 0.00 in0.0 mm
01:30 AM 74.2°F23.4°C 72.3°F22.4°C 94% 2.3 mph SSW3.7 kmh SSW 3.5 mph5.6 kmh 29.89 in1012.2 mb - 0.00 in0.0 mm 0.00 in0.0 mm
01:20 AM 74.1°F23.4°C 72.3°F22.4°C 94% Calm Calm 1.2 mph1.9 kmh 29.90 in1012.5 mb - 0.00 in0.0 mm 0.00 in0.0 mm
01:10 AM 74.3°F23.5°C 72.5°F22.5°C 94% 1.2 mph SW1.9 kmh SW 2.3 mph3.7 kmh 29.90 in1012.5 mb - 0.00 in0.0 mm 0.00 in0.0 mm
01:00 AM 74.6°F23.7°C 72.8°F22.7°C 94% 1.2 mph SW1.9 kmh SW 1.2 mph1.9 kmh 29.90 in1012.5 mb - 0.00 in0.0 mm 0.00 in0.0 mm
12:50 AM 74.7°F23.7°C 72.8°F22.7°C 94% Calm Calm 1.2 mph1.9 kmh 29.90 in1012.5 mb - 0.00 in0.0 mm 0.00 in0.0 mm
12:40 AM 74.7°F23.7°C 72.9°F22.7°C 94% 1.2 mph SSW1.9 kmh SSW 1.2 mph1.9 kmh 29.90 in1012.5 mb - 0.00 in0.0 mm 0.00 in0.0 mm
12:30 AM 74.9°F23.8°C 73.0°F22.8°C 94% 1.2 mph SW1.9 kmh SW 2.3 mph3.7 kmh 29.90 in1012.5 mb - 0.00 in0.0 mm 0.00 in0.0 mm
12:20 AM 74.9°F23.8°C 73.1°F22.8°C 94% 1.2 mph S1.9 kmh S 1.2 mph1.9 kmh 29.90 in1012.5 mb - 0.00 in0.0 mm 0.00 in0.0 mm
12:10 AM 74.7°F23.7°C 72.9°F22.7°C 94% 1.2 mph SSW1.9 kmh SSW 2.3 mph3.7 kmh 29.90 in1012.5 mb - 0.00 in0.0 mm 0.00 in0.0 mm
12:00 AM 74.4°F23.6°C 72.6°F22.6°C 94% 1.2 mph SSW1.9 kmh SSW 1.2 mph1.9 kmh 29.90 in1012.5 mb - 0.00 in0.0 mm 0.00 in0.0 mm